createdAt,value
2017-04-18T00:00:42.969Z,59.9
2017-04-18T00:01:53.291Z,60.09
2017-04-18T00:03:03.298Z,60.18
2017-04-18T00:04:13.641Z,59.9
2017-04-18T00:05:23.976Z,60.09
2017-04-18T00:06:34.312Z,60.18
2017-04-18T00:07:44.650Z,60.09
2017-04-18T00:08:54.971Z,59.9
2017-04-18T00:10:05.310Z,60.28
2017-04-18T00:11:15.315Z,59.8
2017-04-18T00:12:25.342Z,60.28
2017-04-18T00:13:35.356Z,60.18
2017-04-18T00:14:45.705Z,60.09
2017-04-18T00:15:56.036Z,60.28
2017-04-18T00:17:06.348Z,59.99
2017-04-18T00:18:16.370Z,60.18
2017-04-18T00:19:26.951Z,60.18
2017-04-18T00:20:36.955Z,60.18
2017-04-18T00:21:46.977Z,60.18
2017-04-18T00:22:57.315Z,60.06
2017-04-18T00:24:07.635Z,60.16
2017-04-18T00:25:17.955Z,60.28
2017-04-18T00:26:28.286Z,60.18
2017-04-18T00:27:38.618Z,60.09
2017-04-18T00:28:48.950Z,60.09
2017-04-18T00:29:59.291Z,60.16
2017-04-18T00:31:09.317Z,60.16
2017-04-18T00:32:19.342Z,60.16
2017-04-18T00:33:29.037Z,60.06
2017-04-18T00:34:39.045Z,60.18
2017-04-18T00:35:49.074Z,60.16
2017-04-18T00:36:59.398Z,60.25
2017-04-18T00:38:09.110Z,60.06
2017-04-18T00:39:19.483Z,59.87
2017-04-18T00:40:29.847Z,60.18
2017-04-18T00:41:39.904Z,60.09
2017-04-18T00:42:49.962Z,59.96
2017-04-18T00:44:00.000Z,59.9
2017-04-18T00:45:09.393Z,60.06
2017-04-18T00:46:19.713Z,60.09
2017-04-18T00:47:30.034Z,60.16
2017-04-18T00:48:40.355Z,60.09
2017-04-18T00:49:50.677Z,60.18
2017-04-18T00:51:00.688Z,60.06
2017-04-18T00:52:11.023Z,60.06
2017-04-18T00:53:21.313Z,59.9
2017-04-18T00:54:31.648Z,60.09
2017-04-18T00:55:41.986Z,60.18
2017-04-18T00:56:52.287Z,60.18
2017-04-18T00:58:02.714Z,60.18
2017-04-18T00:59:13.043Z,60.18
2017-04-18T01:00:23.386Z,60.18
2017-04-18T01:01:33.086Z,60.09
2017-04-18T01:02:43.405Z,60.28
2017-04-18T01:03:53.103Z,60.47
2017-04-18T01:05:03.141Z,60.38
2017-04-18T01:06:13.200Z,59.9
2017-04-18T01:07:23.223Z,59.9
2017-04-18T01:08:32.947Z,59.99
2017-04-18T01:09:43.285Z,59.99
2017-04-18T01:10:53.608Z,60.18
2017-04-18T01:12:03.934Z,60.18
2017-04-18T01:13:14.271Z,59.99
2017-04-18T01:14:24.605Z,59.9
2017-04-18T01:15:34.626Z,59.9
2017-04-18T01:16:44.952Z,59.9
2017-04-18T01:17:55.300Z,60.18
2017-04-18T01:19:05.638Z,60.47
2017-04-18T01:20:15.661Z,60.47
2017-04-18T01:21:26.003Z,60.28
2017-04-18T01:22:36.357Z,60.28
2017-04-18T01:23:46.748Z,60.38
2017-04-18T01:24:56.761Z,60.38
2017-04-18T01:26:07.129Z,60.38
2017-04-18T01:27:17.452Z,60.18
2017-04-18T01:28:27.788Z,60.28
2017-04-18T01:29:38.117Z,60.38
2017-04-18T01:30:48.548Z,60.38
2017-04-18T01:31:59.063Z,60.28
2017-04-18T01:33:09.541Z,60.28
2017-04-18T01:34:19.591Z,60.38
2017-04-18T01:35:29.919Z,60.18
2017-04-18T01:36:39.941Z,59.9
2017-04-18T01:37:49.962Z,59.8
2017-04-18T01:39:00.209Z,60.28
2017-04-18T01:40:10.533Z,60.38
2017-04-18T01:41:20.871Z,60.38
2017-04-18T01:42:30.910Z,60.38
2017-04-18T01:43:40.928Z,60.38
2017-04-18T01:44:51.300Z,60.28
2017-04-18T01:46:01.645Z,60.38
2017-04-18T01:47:11.983Z,59.9
2017-04-18T01:48:22.319Z,60.18
2017-04-18T01:49:32.339Z,60.18
2017-04-18T01:50:42.655Z,60.18
2017-04-18T01:51:52.359Z,60.09
2017-04-18T01:53:02.744Z,60.16
2017-04-18T01:54:13.079Z,60.16
2017-04-18T01:55:23.334Z,60.16
2017-04-18T01:56:33.898Z,60.18
2017-04-18T01:57:43.917Z,60.28
2017-04-18T01:58:53.952Z,60.18
2017-04-18T02:00:04.295Z,59.99
2017-04-18T02:01:14.302Z,60.47
2017-04-18T02:02:24.010Z,60.38
2017-04-18T02:03:34.330Z,60.38
2017-04-18T02:04:44.422Z,60.38
2017-04-18T02:05:54.124Z,60.38
2017-04-18T02:07:04.155Z,60.38
2017-04-18T02:08:14.590Z,60.28
2017-04-18T02:09:24.994Z,60.38
2017-04-18T02:10:35.250Z,60.18
2017-04-18T02:11:45.868Z,60.38
2017-04-18T02:12:56.488Z,59.9
2017-04-18T02:14:06.538Z,60.09
2017-04-18T02:15:16.888Z,60.09
2017-04-18T02:16:26.947Z,60.28
2017-04-18T02:17:37.312Z,59.99
2017-04-18T02:18:47.653Z,60.47
2017-04-18T02:19:58.018Z,60.28
2017-04-18T02:21:08.035Z,60.09
2017-04-18T02:22:17.733Z,60.25
2017-04-18T02:23:27.750Z,59.99
2017-04-18T02:24:37.752Z,60.25
2017-04-18T02:25:48.070Z,60.25
2017-04-18T02:26:58.080Z,60.35
2017-04-18T02:28:08.386Z,60.44
2017-04-18T02:29:18.716Z,60.44
2017-04-18T02:30:28.746Z,60.44
2017-04-18T02:31:39.059Z,60.16
2017-04-18T02:32:49.388Z,60.25
2017-04-18T02:33:59.731Z,60.16
2017-04-18T02:35:09.737Z,60.47
2017-04-18T02:36:19.752Z,59.9
2017-04-18T02:37:29.789Z,60.06
2017-04-18T02:38:40.118Z,60.35
2017-04-18T02:39:50.494Z,59.99
2017-04-18T02:41:00.500Z,60.44
2017-04-18T02:42:10.506Z,60.06
2017-04-18T02:43:20.522Z,60.16
2017-04-18T02:44:30.852Z,60.18
2017-04-18T02:45:41.203Z,60.09
2017-04-18T02:46:51.523Z,60.53
2017-04-18T02:48:01.900Z,60.06
2017-04-18T02:49:12.227Z,60.28
2017-04-18T02:50:22.549Z,59.87
2017-04-18T02:51:32.861Z,60.25
2017-04-18T02:52:42.567Z,60.06
2017-04-18T02:53:52.578Z,60.16
2017-04-18T02:55:02.948Z,60.25
2017-04-18T02:56:13.797Z,60.18
2017-04-18T02:57:23.848Z,59.96
2017-04-18T02:58:34.196Z,59.87
2017-04-18T02:59:44.529Z,60.47
2017-04-18T03:00:54.855Z,60.28
2017-04-18T03:32:32.144Z,58.61
2017-04-18T03:33:42.241Z,58.99
2017-04-18T03:34:52.378Z,59.75
2017-04-18T03:36:02.262Z,60.03
2017-04-18T03:37:12.584Z,60.89
2017-04-18T03:38:22.896Z,61.36
2017-04-18T03:39:32.927Z,61.65
2017-04-18T03:40:43.263Z,61.46
2017-04-18T03:41:53.584Z,61.65
2017-04-18T03:43:03.291Z,61.58
2017-04-18T03:44:13.299Z,61.77
2017-04-18T03:45:23.317Z,61.58
2017-04-18T03:46:33.637Z,61.58
2017-04-18T03:47:43.639Z,61.68
2017-04-18T03:48:53.660Z,61.14
2017-04-18T03:50:03.991Z,61.52
2017-04-18T03:51:14.009Z,61.23
2017-04-18T03:52:24.375Z,61.14
2017-04-18T03:53:34.396Z,61.33
2017-04-18T03:54:44.430Z,61.52
2017-04-18T03:55:54.767Z,61.33
2017-04-18T03:57:05.084Z,61.45
2017-04-18T03:58:15.404Z,61.17
2017-04-18T03:59:25.727Z,60.88
2017-04-18T04:00:36.094Z,60.88
2017-04-18T04:01:46.420Z,61.07
2017-04-18T04:02:56.760Z,61.07
2017-04-18T04:04:07.091Z,60.98
2017-04-18T04:05:17.420Z,61.17
2017-04-18T04:06:27.460Z,60.41
2017-04-18T04:07:37.845Z,60.69
2017-04-18T04:08:48.170Z,60.6
2017-04-18T04:09:58.232Z,60.41
2017-04-18T04:11:08.606Z,60.31
2017-04-18T04:12:19.090Z,60.5
2017-04-18T04:13:29.357Z,60.13
2017-04-18T04:14:39.369Z,60.13
2017-04-18T04:15:49.700Z,60.16
2017-04-18T04:16:59.710Z,60.44
2017-04-18T04:18:10.057Z,60.16
2017-04-18T04:19:20.064Z,59.77
2017-04-18T04:20:30.076Z,59.68
2017-04-18T04:21:40.087Z,59.23
2017-04-18T04:22:50.102Z,58.66
2017-04-18T04:24:00.446Z,58.59
2017-04-18T04:25:10.470Z,58.59
2017-04-18T04:26:20.816Z,59.36
2017-04-18T04:27:31.139Z,59.83
2017-04-18T04:28:41.482Z,59.83
2017-04-18T04:29:51.820Z,59.74
2017-04-18T04:31:02.141Z,59.07
2017-04-18T04:32:12.476Z,58.62
2017-04-18T04:33:22.801Z,57.51
2017-04-18T04:34:33.108Z,56.97
2017-04-18T04:35:43.444Z,56.68
2017-04-18T04:36:53.826Z,56.62
2017-04-18T04:38:04.165Z,56.74
2017-04-18T04:39:14.495Z,56.65
2017-04-18T04:40:24.863Z,56.77
2017-04-18T04:41:34.867Z,56.67
2017-04-18T04:42:44.884Z,56.58
2017-04-18T04:43:55.200Z,56.7
2017-04-18T04:45:04.606Z,56.6
2017-04-18T04:46:14.620Z,57.09
2017-04-18T04:47:24.648Z,57.5
2017-04-18T04:48:34.978Z,57.21
2017-04-18T04:49:45.352Z,57.31
2017-04-18T04:50:55.683Z,57.21
2017-04-18T04:52:06.018Z,57.21
2017-04-18T04:53:16.346Z,57.68
2017-04-18T04:54:26.662Z,58.73
2017-04-18T04:55:36.904Z,60.02
2017-04-18T04:56:47.273Z,58.77
2017-04-18T04:57:58.092Z,58.7
2017-04-18T04:59:08.728Z,58.54
2017-04-18T05:00:18.431Z,57.97
2017-04-18T05:01:28.764Z,57.97
2017-04-18T05:02:38.781Z,57.5
2017-04-18T05:03:49.149Z,57.33
2017-04-18T05:04:59.502Z,57.33
2017-04-18T05:06:09.539Z,57.33
2017-04-18T05:07:19.898Z,57.26
2017-04-18T05:08:30.233Z,57.36
2017-04-18T05:09:40.561Z,57.36
2017-04-18T05:10:50.886Z,57.26
2017-04-18T05:12:00.906Z,57.36
2017-04-18T05:13:11.239Z,57.17
2017-04-18T05:14:21.580Z,57.65
2017-04-18T05:15:31.914Z,57.65
2017-04-18T05:16:42.241Z,57.97
2017-04-18T05:17:52.261Z,57.87
2017-04-18T05:19:01.974Z,57.58
2017-04-18T05:20:12.315Z,58.06
2017-04-18T05:21:22.645Z,57.97
2017-04-18T05:22:32.964Z,57.87
2017-04-18T05:23:43.385Z,59.01
2017-04-18T05:24:53.406Z,60.23
2017-04-18T05:26:03.738Z,60.17
2017-04-18T05:27:14.056Z,60.71
2017-04-18T05:28:24.072Z,61.35
2017-04-18T05:29:34.099Z,61.25
2017-04-18T05:30:44.120Z,60.55
2017-04-18T05:31:54.468Z,60.21
2017-04-18T05:33:04.827Z,59.92
2017-04-18T05:34:15.166Z,59.92
2017-04-18T05:35:25.213Z,59.82
2017-04-18T05:36:35.539Z,59.6
2017-04-18T05:37:45.236Z,59.63
2017-04-18T05:38:55.573Z,59.25
2017-04-18T05:40:05.914Z,59.63
2017-04-18T05:41:16.246Z,60.46
2017-04-18T05:42:26.583Z,59.99
2017-04-18T05:43:36.612Z,60.33
2017-04-18T05:44:46.971Z,60.43
2017-04-18T05:45:57.307Z,60.52
2017-04-18T05:47:07.749Z,60.05
2017-04-18T05:48:18.170Z,60.43
2017-04-18T05:49:28.088Z,60.14
2017-04-18T05:50:38.600Z,59.76
2017-04-18T05:51:48.431Z,59.95
2017-04-18T05:52:58.223Z,58.81
2017-04-18T05:54:07.936Z,58.75
2017-04-18T05:55:18.262Z,58.65
2017-04-18T05:56:28.590Z,58.48
2017-04-18T05:57:38.595Z,58.39
2017-04-18T05:58:48.624Z,57.53
2017-04-18T05:59:58.654Z,57.09
2017-04-18T06:01:08.993Z,56.99
2017-04-18T06:02:19.356Z,57.56
2017-04-18T06:03:29.364Z,58.42
2017-04-18T06:04:39.681Z,58.33
2017-04-18T06:05:50.021Z,58.68
2017-04-18T06:07:00.045Z,58.77
2017-04-18T06:08:10.376Z,58.77
2017-04-18T06:09:20.705Z,58.77
2017-04-18T06:10:30.724Z,58.97
2017-04-18T06:11:41.047Z,58.2
2017-04-18T06:12:51.371Z,58.68
2017-04-18T06:14:01.704Z,58.01
2017-04-18T06:15:11.420Z,58.01
2017-04-18T06:16:21.448Z,58.39
2017-04-18T06:17:31.148Z,58.33
2017-04-18T06:18:41.475Z,58.51
2017-04-18T06:19:51.493Z,58.51
2017-04-18T06:21:01.843Z,58.51
2017-04-18T06:22:11.875Z,58.51
2017-04-18T06:23:21.578Z,58.68
2017-04-18T06:24:31.905Z,58.77
2017-04-18T06:25:42.241Z,58.77
2017-04-18T06:26:51.939Z,58.58
2017-04-18T06:28:02.260Z,59.06
2017-04-18T06:29:12.578Z,59.34
2017-04-18T06:30:22.917Z,59.34
2017-04-18T06:31:32.925Z,59.53
2017-04-18T06:32:43.252Z,59.31
2017-04-18T06:33:53.285Z,59.51
2017-04-18T06:35:03.615Z,59.34
2017-04-18T06:36:13.976Z,59.03
2017-04-18T06:37:24.312Z,58.77
2017-04-18T06:38:34.635Z,58.97
2017-04-18T06:39:44.989Z,58.77
2017-04-18T06:40:55.319Z,58.87
2017-04-18T06:42:05.348Z,58.68
2017-04-18T06:43:15.357Z,58.58
2017-04-18T06:44:25.374Z,58.42
2017-04-18T06:45:35.721Z,58.04
2017-04-18T06:46:46.063Z,58.04
2017-04-18T06:47:56.639Z,57.85
2017-04-18T06:49:07.030Z,58.14
2017-04-18T06:50:17.368Z,58.51
2017-04-18T06:51:27.621Z,58.42
2017-04-18T06:52:37.959Z,58.9
2017-04-18T06:53:48.321Z,58.33
2017-04-18T06:54:58.354Z,58.61
2017-04-18T06:56:08.407Z,58.7
2017-04-18T06:57:18.752Z,58.7
2017-04-18T06:58:28.765Z,59.09
2017-04-18T06:59:38.778Z,58.61
2017-04-18T07:00:49.105Z,58.61
2017-04-18T07:01:59.109Z,58.23
2017-04-18T07:03:09.138Z,58.04
2017-04-18T07:04:19.477Z,57.97
2017-04-18T07:05:29.499Z,58.51
2017-04-18T07:06:39.830Z,58.07
2017-04-18T07:07:49.547Z,58.16
2017-04-18T07:08:59.879Z,58.36
2017-04-18T07:10:10.205Z,58.45
2017-04-18T07:11:20.564Z,58.26
2017-04-18T07:12:30.924Z,58.36
2017-04-18T07:13:41.252Z,57.97
2017-04-18T07:14:51.590Z,58.38
2017-04-18T07:16:01.915Z,58
2017-04-18T07:17:11.637Z,57.53
2017-04-18T07:18:21.692Z,57.17
2017-04-18T07:19:32.037Z,57.46
2017-04-18T07:20:42.058Z,57.65
2017-04-18T07:21:52.091Z,58.03
2017-04-18T07:23:02.449Z,58.86
2017-04-18T07:24:12.497Z,58.76
2017-04-18T07:25:22.839Z,58.83
2017-04-18T07:26:33.184Z,59.02
2017-04-18T07:27:43.542Z,58.93
2017-04-18T07:28:53.559Z,58.73
2017-04-18T07:30:03.911Z,58.93
2017-04-18T07:31:14.349Z,58.73
2017-04-18T07:32:24.669Z,58.36
2017-04-18T07:33:34.985Z,58.38
2017-04-18T07:34:45.319Z,57.71
2017-04-18T07:35:55.362Z,57.62
2017-04-18T07:37:05.686Z,57.17
2017-04-18T07:38:15.782Z,57.55
2017-04-18T07:39:26.160Z,57.1
2017-04-18T07:40:36.191Z,57.29
2017-04-18T07:41:45.573Z,57.29
2017-04-18T07:42:55.910Z,57.2
2017-04-18T07:44:06.285Z,56.94
2017-04-18T07:45:16.361Z,56.84
2017-04-18T07:46:26.379Z,57.06
2017-04-18T07:47:36.403Z,57.26
2017-04-18T07:48:46.748Z,56.68
2017-04-18T07:49:57.079Z,56.42
2017-04-18T07:51:07.421Z,56.9
2017-04-18T07:52:17.752Z,57.09
2017-04-18T07:53:28.095Z,56.9
2017-04-18T07:54:38.135Z,56.9
2017-04-18T07:55:48.463Z,56.54
2017-04-18T07:56:58.181Z,56.45
2017-04-18T07:58:08.526Z,56.57
2017-04-18T07:59:18.858Z,56.93
2017-04-18T08:00:29.183Z,57.5
2017-04-18T08:01:39.203Z,57.31
2017-04-18T08:02:49.548Z,56.93
2017-04-18T08:03:59.877Z,57.41
2017-04-18T08:05:09.922Z,57.7
2017-04-18T08:06:20.265Z,57.86
2017-04-18T08:07:30.589Z,58.91
2017-04-18T08:08:40.338Z,59.08
2017-04-18T08:09:50.701Z,59.05
2017-04-18T08:11:01.137Z,59.33
2017-04-18T08:12:11.157Z,58.86
2017-04-18T08:13:20.552Z,58.92
2017-04-18T08:14:30.593Z,58.92
2017-04-18T08:15:40.925Z,58.92
2017-04-18T08:16:51.273Z,58.44
2017-04-18T08:18:01.638Z,57.51
2017-04-18T08:19:11.732Z,56.77
2017-04-18T08:20:21.755Z,56.77
2017-04-18T08:21:32.100Z,57.64
2017-04-18T08:22:42.128Z,57.45
2017-04-18T08:23:52.459Z,57.73
2017-04-18T08:25:02.801Z,57.7
2017-04-18T08:26:12.854Z,58.37
2017-04-18T08:27:23.177Z,58.54
2017-04-18T08:28:33.225Z,58.63
2017-04-18T08:29:43.240Z,58.54
2017-04-18T08:30:53.576Z,58.44
2017-04-18T08:32:03.286Z,58.63
2017-04-18T08:33:13.638Z,58.44
2017-04-18T08:34:23.986Z,58.44
2017-04-18T08:35:34.330Z,58.34
2017-04-18T08:36:44.041Z,58.44
2017-04-18T08:37:54.094Z,57.58
2017-04-18T08:39:04.550Z,57.77
2017-04-18T08:40:14.880Z,57.8
2017-04-18T08:41:25.326Z,57.77
2017-04-18T08:42:35.683Z,56.94
2017-04-18T08:43:46.012Z,57.35
2017-04-18T08:44:55.761Z,57.8
2017-04-18T08:46:05.789Z,57.42
2017-04-18T08:47:15.809Z,57.16
2017-04-18T08:48:25.854Z,56.23
2017-04-18T08:49:35.892Z,56.52
2017-04-18T08:50:46.220Z,56.83
2017-04-18T08:51:56.261Z,56.99
2017-04-18T08:53:06.591Z,56.9
2017-04-18T08:54:16.615Z,57.57
2017-04-18T08:55:26.957Z,57.38
2017-04-18T08:56:36.975Z,56.9
2017-04-18T08:57:47.340Z,56.99
2017-04-18T08:58:57.423Z,57.67
2017-04-18T09:00:07.748Z,57.48
2017-04-18T09:01:17.784Z,57.28
2017-04-18T09:02:28.125Z,57.19
2017-04-18T09:03:38.463Z,57.38
2017-04-18T09:04:48.805Z,57.76
2017-04-18T09:05:58.528Z,56.93
2017-04-18T09:07:08.888Z,56.54
2017-04-18T09:08:19.020Z,56.45
2017-04-18T09:09:29.064Z,56.83
2017-04-18T09:10:39.088Z,56.93
2017-04-18T09:11:49.421Z,57.31
2017-04-18T09:12:59.139Z,57.48
2017-04-18T09:14:09.489Z,56.35
2017-04-18T09:15:19.831Z,56.29
2017-04-18T09:16:30.180Z,56.96
2017-04-18T09:17:40.533Z,57.79
2017-04-18T09:18:50.881Z,57.67
2017-04-18T09:20:01.260Z,57.76
2017-04-18T09:21:11.621Z,57.28
2017-04-18T09:22:21.658Z,57.48
2017-04-18T09:23:31.729Z,57.03
2017-04-18T09:24:42.071Z,56.83
2017-04-18T09:25:52.453Z,57.31
2017-04-18T09:27:02.524Z,57.41
2017-04-18T09:28:12.549Z,57.38
2017-04-18T09:29:22.581Z,57.48
2017-04-18T09:30:32.953Z,57.6
2017-04-18T09:31:43.299Z,57.79
2017-04-18T09:32:53.646Z,57.79
2017-04-18T09:34:03.691Z,57.31
2017-04-18T09:35:13.720Z,57.5
2017-04-18T09:36:23.768Z,57.86
2017-04-18T09:37:34.104Z,58.24
2017-04-18T09:38:44.701Z,58.24
2017-04-18T09:39:54.892Z,58.15
2017-04-18T09:41:04.604Z,58.15
2017-04-18T09:42:14.947Z,58.15
2017-04-18T09:43:25.280Z,57.86
2017-04-18T09:44:35.305Z,57.38
2017-04-18T09:45:45.637Z,56.83
2017-04-18T09:46:55.644Z,56.93
2017-04-18T09:48:05.690Z,57.31
2017-04-18T09:49:16.023Z,57.6
2017-04-18T09:50:26.380Z,57.95
2017-04-18T09:51:36.709Z,57.76
2017-04-18T09:52:47.044Z,57.57
2017-04-18T09:53:57.068Z,57.12
2017-04-18T09:55:07.108Z,57.79
2017-04-18T09:56:17.644Z,57.41
2017-04-18T09:57:27.986Z,57.21
2017-04-18T09:58:38.313Z,57.31
2017-04-18T09:59:48.347Z,58.27
2017-04-18T10:00:58.710Z,58.34
2017-04-18T10:02:08.741Z,58.81
2017-04-18T10:03:19.114Z,58.91
2017-04-18T10:04:29.439Z,59.2
2017-04-18T10:05:39.509Z,59.27
2017-04-18T10:06:49.817Z,58.88
2017-04-18T10:08:00.098Z,59.45
2017-04-18T10:09:09.941Z,58.98
2017-04-18T10:10:20.421Z,59.08
2017-04-18T10:11:30.075Z,59.33
2017-04-18T10:12:40.350Z,59.23
2017-04-18T10:13:50.327Z,59.23
2017-04-18T10:15:00.604Z,58.28
2017-04-18T10:16:10.595Z,57.54
2017-04-18T10:17:20.891Z,58.62
2017-04-18T10:18:31.166Z,57.83
2017-04-18T10:19:41.441Z,57.67
2017-04-18T10:20:51.718Z,57.31
2017-04-18T10:22:02.039Z,56.57
2017-04-18T10:23:12.321Z,56.02
2017-04-18T10:24:22.607Z,56.53
2017-04-18T10:25:32.889Z,56.12
2017-04-18T10:26:43.162Z,56.51
2017-04-18T10:27:53.204Z,55.67
2017-04-18T10:29:03.202Z,55.32
2017-04-18T10:30:13.186Z,55.51
2017-04-18T10:31:23.478Z,55.73
2017-04-18T10:32:33.770Z,55.73
2017-04-18T10:33:43.747Z,56.11
2017-04-18T10:34:53.741Z,56.4
2017-04-18T10:36:03.715Z,57.04
2017-04-18T10:37:13.688Z,57.04
2017-04-18T10:38:23.992Z,57.11
2017-04-18T10:39:34.392Z,55.99
2017-04-18T10:40:44.582Z,56.3
2017-04-18T10:41:54.773Z,56.88
2017-04-18T10:43:04.741Z,57.14
2017-04-18T10:44:14.553Z,57.59
2017-04-18T10:45:24.825Z,59.32
2017-04-18T10:46:35.112Z,60.31
2017-04-18T10:47:45.088Z,59.9
2017-04-18T10:48:55.386Z,60.16
2017-04-18T10:50:05.654Z,59.68
2017-04-18T10:51:15.978Z,58.94
2017-04-18T10:52:25.960Z,58.65
2017-04-18T10:53:35.946Z,58.56
2017-04-18T10:54:46.248Z,58.08
2017-04-18T10:55:56.528Z,57.92
2017-04-18T10:57:06.788Z,57.43
2017-04-18T10:58:17.108Z,57.34
2017-04-18T10:59:27.392Z,57.65
2017-04-18T11:00:37.678Z,56.98
2017-04-18T11:01:47.967Z,57.01
2017-04-18T11:02:57.940Z,56.44
2017-04-18T11:04:07.901Z,56.44
2017-04-18T11:05:17.894Z,55.6
2017-04-18T11:06:28.170Z,55.82
2017-04-18T11:07:38.454Z,55.85
2017-04-18T11:08:48.468Z,56.04
2017-04-18T11:09:58.441Z,56.62
2017-04-18T11:11:08.715Z,57.14
2017-04-18T11:12:18.984Z,58.74
2017-04-18T11:13:28.956Z,59.67
2017-04-18T11:14:38.952Z,60.12
2017-04-18T11:15:49.065Z,60.09
2017-04-18T11:16:59.032Z,59.9
2017-04-18T11:18:09.642Z,60.73
2017-04-18T11:19:19.925Z,60.16
2017-04-18T11:20:30.215Z,60.03
2017-04-18T11:21:40.163Z,59.2
2017-04-18T11:22:50.438Z,57.79
2017-04-18T11:24:00.126Z,57.5
2017-04-18T11:25:10.410Z,57.06
2017-04-18T11:26:20.427Z,56.12
2017-04-18T11:27:30.690Z,56.24
2017-04-18T11:28:40.659Z,55.12
2017-04-18T11:29:50.623Z,54.96
2017-04-18T11:31:00.892Z,55.15
2017-04-18T11:32:11.176Z,55.18
2017-04-18T11:33:21.158Z,55.08
2017-04-18T11:34:31.456Z,55.18
2017-04-18T11:35:41.748Z,55.11
2017-04-18T11:36:52.030Z,55.2
2017-04-18T11:38:01.735Z,55.4
2017-04-18T11:39:12.019Z,55.3
2017-04-18T11:40:21.972Z,55.68
2017-04-18T11:41:31.945Z,56.26
2017-04-18T11:42:42.204Z,56.23
2017-04-18T11:43:52.216Z,57
2017-04-18T11:45:02.490Z,57.84
2017-04-18T11:46:12.478Z,59.16
2017-04-18T11:47:22.750Z,59.86
2017-04-18T11:48:33.057Z,60.15
2017-04-18T11:49:43.378Z,60.6
2017-04-18T11:50:53.700Z,60.03
2017-04-18T11:52:03.738Z,58.87
2017-04-18T11:53:13.729Z,57.65
2017-04-18T11:54:23.699Z,57.4
2017-04-18T11:55:33.987Z,56.95
2017-04-18T11:56:44.278Z,56.08
2017-04-18T11:57:54.548Z,56.59
2017-04-18T11:59:04.848Z,57.07
2017-04-18T12:00:15.184Z,58.1
2017-04-18T12:01:25.537Z,58.84
2017-04-18T12:02:35.262Z,59.19
2017-04-18T12:03:45.283Z,59.77
2017-04-18T12:04:55.627Z,60.12
2017-04-18T12:06:05.965Z,60.03
2017-04-18T12:07:15.703Z,59.83
2017-04-18T12:08:25.719Z,59.45
2017-04-18T12:09:36.054Z,58.01
2017-04-18T12:10:45.783Z,57.21
2017-04-18T12:11:56.131Z,56.18
2017-04-18T12:13:05.850Z,57.43
2017-04-18T12:14:15.579Z,57.88
2017-04-18T12:15:25.917Z,58.62
2017-04-18T12:16:35.952Z,58.62
2017-04-18T12:17:46.011Z,58.62
2017-04-18T12:18:56.347Z,58.71
2017-04-18T12:20:06.681Z,58.71
2017-04-18T12:21:16.691Z,58.62
2017-04-18T12:22:27.027Z,58.52
2017-04-18T12:23:37.377Z,58.81
2017-04-18T12:24:47.386Z,57.95
2017-04-18T12:25:57.755Z,58.04
2017-04-18T12:27:07.865Z,57.65
2017-04-18T12:28:17.907Z,56.73
2017-04-18T12:29:28.238Z,56.46
2017-04-18T12:30:37.645Z,55.63
2017-04-18T12:31:47.989Z,56.04
2017-04-18T12:32:58.031Z,57.07
2017-04-18T12:34:08.380Z,58.17
2017-04-18T12:35:18.711Z,58.91
2017-04-18T12:36:29.039Z,59.64
2017-04-18T12:37:38.779Z,60.57
2017-04-18T12:38:49.171Z,60.35
2017-04-18T12:39:59.517Z,60.32
2017-04-18T12:41:09.882Z,60.61
2017-04-18T12:42:20.220Z,60.58
2017-04-18T12:43:30.578Z,60.19
2017-04-18T12:44:40.610Z,59.81
2017-04-18T12:45:50.625Z,59.91
2017-04-18T12:47:00.978Z,59.62
2017-04-18T12:48:11.311Z,59.43
2017-04-18T12:49:21.672Z,58.86
2017-04-18T12:50:32.024Z,58.86
2017-04-18T12:51:42.166Z,57.92
2017-04-18T12:52:52.602Z,57.09
2017-04-18T12:54:02.970Z,56.99
2017-04-18T12:55:13.321Z,56.9
2017-04-18T12:56:23.367Z,56.07
2017-04-18T12:57:33.389Z,55.71
2017-04-18T12:58:43.717Z,55.83
2017-04-18T12:59:54.050Z,55.64
2017-04-18T13:01:04.389Z,55.29
2017-04-18T13:02:14.785Z,55.47
2017-04-18T13:03:24.801Z,55.12
2017-04-18T13:04:35.165Z,55.22
2017-04-18T13:05:45.194Z,55.69
2017-04-18T13:06:55.526Z,55.73
2017-04-18T13:08:05.638Z,55.6
2017-04-18T13:09:15.681Z,55.34
2017-04-18T13:10:26.003Z,55.37
2017-04-18T13:11:36.018Z,55.46
2017-04-18T13:12:46.355Z,55.66
2017-04-18T13:13:56.697Z,56.04
2017-04-18T13:15:06.745Z,56.98
2017-04-18T13:16:16.470Z,57.71
2017-04-18T13:17:26.973Z,58.17
2017-04-18T13:18:37.306Z,58.52
2017-04-18T13:19:47.865Z,58.81
2017-04-18T13:20:58.201Z,59.06
2017-04-18T13:22:08.540Z,59.04
2017-04-18T13:23:18.855Z,59.33
2017-04-18T13:24:29.205Z,59.2
2017-04-18T13:25:39.249Z,59.11
2017-04-18T13:26:49.582Z,59.39
2017-04-18T13:27:59.298Z,59.11
2017-04-18T13:29:09.338Z,58.98
2017-04-18T13:30:19.356Z,58.88
2017-04-18T13:31:29.445Z,58.4
2017-04-18T13:32:39.788Z,58.02
2017-04-18T13:33:49.489Z,57.83
2017-04-18T13:34:59.523Z,58.12
2017-04-18T13:36:09.865Z,57.64
2017-04-18T13:37:19.883Z,57.61
2017-04-18T13:38:30.216Z,58.47
2017-04-18T13:39:40.223Z,58.15
2017-04-18T13:40:50.557Z,58.34
2017-04-18T13:42:00.578Z,58.54
2017-04-18T13:43:10.275Z,57.97
2017-04-18T13:44:20.608Z,57.48
2017-04-18T13:45:30.869Z,56.94
2017-04-18T13:46:41.203Z,56.39
2017-04-18T13:47:51.345Z,56.2
2017-04-18T13:49:01.676Z,56.2
2017-04-18T13:50:11.717Z,56.39
2017-04-18T13:51:21.742Z,56.23
2017-04-18T13:52:32.085Z,56.32
2017-04-18T13:53:42.431Z,56.42
2017-04-18T13:54:52.458Z,56.32
2017-04-18T13:56:02.513Z,56.04
2017-04-18T13:57:12.861Z,55.65
2017-04-18T13:58:22.880Z,56.42
2017-04-18T13:59:33.214Z,56.26
2017-04-18T14:00:43.241Z,55.68
2017-04-18T14:01:53.585Z,55.58
2017-04-18T14:03:03.905Z,56.45
2017-04-18T14:04:13.910Z,56.35
2017-04-18T14:05:24.259Z,56.54
2017-04-18T14:06:34.584Z,56.26
2017-04-18T14:07:44.298Z,56.26
2017-04-18T14:08:54.640Z,56.26
2017-04-18T14:10:04.667Z,56.35
2017-04-18T14:11:14.374Z,56.45
2017-04-18T14:12:24.724Z,55.87
2017-04-18T14:13:34.766Z,56.26
2017-04-18T14:14:44.813Z,56.45
2017-04-18T14:15:55.140Z,56.45
2017-04-18T14:17:05.469Z,56.26
2017-04-18T14:18:15.804Z,56.99
2017-04-18T14:19:26.143Z,57.67
2017-04-18T14:20:36.484Z,57.64
2017-04-18T14:21:46.513Z,58.02
2017-04-18T14:22:56.863Z,58.56
2017-04-18T14:24:07.267Z,58.86
2017-04-18T14:25:17.604Z,59.01
2017-04-18T14:26:27.680Z,59.01
2017-04-18T14:27:37.392Z,59.66
2017-04-18T14:28:47.727Z,59.56
2017-04-18T14:29:57.744Z,59.63
2017-04-18T14:31:07.768Z,59.05
2017-04-18T14:32:17.804Z,58.95
2017-04-18T14:33:28.121Z,58.67
2017-04-18T14:34:38.138Z,58.29
2017-04-18T14:35:48.510Z,58.12
2017-04-18T14:36:58.861Z,57.36
2017-04-18T14:38:09.214Z,57.36
2017-04-18T14:39:19.223Z,56.82
2017-04-18T14:40:29.245Z,56.72
2017-04-18T14:41:39.408Z,57.01
2017-04-18T14:42:49.857Z,57.29
2017-04-18T14:44:00.013Z,57.36
2017-04-18T14:45:10.367Z,57.26
2017-04-18T14:46:20.709Z,57.93
2017-04-18T14:47:31.057Z,58.41
2017-04-18T14:48:41.084Z,58.58
2017-04-18T14:49:50.816Z,58.48
2017-04-18T14:51:01.166Z,58.48
2017-04-18T14:52:11.187Z,58.58
2017-04-18T14:53:21.525Z,58.45
2017-04-18T14:54:31.945Z,58.45
2017-04-18T14:55:42.287Z,58.45
2017-04-18T14:56:52.630Z,58.07
2017-04-18T14:58:02.963Z,58.26
2017-04-18T14:59:12.985Z,59.22
2017-04-18T15:00:23.336Z,58.7
2017-04-18T15:01:33.043Z,58.9
2017-04-18T15:02:43.062Z,58.7
2017-04-18T15:03:53.080Z,58.48
2017-04-18T15:05:03.425Z,59.16
2017-04-18T15:06:13.774Z,59.06
2017-04-18T15:07:23.500Z,59.16
2017-04-18T15:08:33.830Z,59.44
2017-04-18T15:09:44.173Z,59.44
2017-04-18T15:10:53.624Z,59.6
2017-04-18T15:12:04.038Z,59.79
2017-04-18T15:13:14.465Z,59.7
2017-04-18T15:14:24.804Z,60.24
2017-04-18T15:15:35.132Z,60.43
2017-04-18T15:16:45.480Z,60.11
2017-04-18T15:17:55.834Z,60.21
2017-04-18T15:19:06.171Z,60.27
2017-04-18T15:20:16.518Z,60.27
2017-04-18T15:21:26.876Z,59.96
2017-04-18T15:22:37.220Z,60.44
2017-04-18T15:23:47.263Z,60.24
2017-04-18T15:24:57.610Z,60.53
2017-04-18T15:26:07.635Z,60.24
2017-04-18T15:27:17.651Z,59.86
2017-04-18T15:28:27.680Z,59.96
2017-04-18T15:29:38.013Z,60.24
2017-04-18T15:30:48.024Z,60.34
2017-04-18T15:31:58.351Z,60.05
2017-04-18T15:33:08.066Z,60.05
2017-04-18T15:34:18.428Z,60.21
2017-04-18T15:35:28.765Z,59.93
2017-04-18T15:36:39.093Z,59.83
2017-04-18T15:37:49.867Z,59.83